Time;durP1;ratioP1;P1;durP2;ratioP2;P2;SDS_P1;SDS_P2;PMS_P1;PMS_P2;Temp;Humidity;BMP_temperature;BMP_pressure;BME280_temperature;BME280_humidity;BME280_pressure;Samples;Min_cycle;Max_cycle;Signal;HPM_P1;HPM_P2
2022/03/24 00:01:28;;;;;;;39.60;29.58;;;6.00;99.90;;;;;;5034619;28;20053;-80
2022/03/24 00:03:53;;;;;;;40.97;31.13;;;6.00;99.90;;;;;;5017068;28;20115;-81
2022/03/24 00:06:19;;;;;;;41.15;32.83;;;6.00;99.90;;;;;;5034062;28;20454;-80
2022/03/24 00:08:45;;;;;;;46.83;33.63;;;5.90;99.90;;;;;;5033315;28;20132;-80
2022/03/24 00:11:11;;;;;;;50.67;34.22;;;5.90;99.90;;;;;;5016002;28;20441;-81
2022/03/24 00:13:36;;;;;;;40.03;32.08;;;5.90;99.90;;;;;;5016803;28;20107;-81
2022/03/24 00:16:05;;;;;;;42.95;31.35;;;5.90;99.90;;;;;;5016498;28;20049;-81
2022/03/24 00:18:32;;;;;;;44.35;31.58;;;5.90;99.90;;;;;;5033067;28;20132;-80
2022/03/24 00:21:03;;;;;;;43.47;32.25;;;5.80;99.90;;;;;;5033825;28;20088;-81
2022/03/24 00:23:29;;;;;;;40.20;31.65;;;5.80;99.90;;;;;;5034157;28;20186;-80
2022/03/24 00:25:54;;;;;;;43.33;32.72;;;5.70;99.90;;;;;;5034029;28;20136;-81
2022/03/24 00:28:20;;;;;;;42.67;32.58;;;5.80;99.90;;;;;;5032698;28;20049;-80
2022/03/24 00:30:45;;;;;;;39.08;31.95;;;5.70;99.90;;;;;;5033867;28;20531;-81
2022/03/24 00:33:12;;;;;;;47.47;34.20;;;5.70;99.90;;;;;;5033571;28;20375;-81
2022/03/24 00:35:38;;;;;;;42.58;33.13;;;5.70;99.90;;;;;;5032624;28;20049;-81
2022/03/24 00:38:05;;;;;;;43.75;33.85;;;5.70;99.90;;;;;;5033079;28;20049;-81
2022/03/24 00:40:30;;;;;;;41.00;32.45;;;5.60;99.90;;;;;;5032666;28;20397;-81
2022/03/24 00:42:57;;;;;;;38.95;30.80;;;5.60;99.90;;;;;;5033922;28;20045;-81
2022/03/24 00:45:23;;;;;;;41.60;31.70;;;5.60;99.90;;;;;;5015863;28;20049;-81
2022/03/24 00:47:49;;;;;;;39.55;31.33;;;5.60;99.90;;;;;;5033560;28;20045;-81
2022/03/24 00:50:15;;;;;;;42.20;31.48;;;5.60;99.90;;;;;;5033212;28;20476;-81
2022/03/24 00:52:45;;;;;;;40.03;31.38;;;5.60;99.90;;;;;;5033732;28;20081;-81
2022/03/24 00:55:12;;;;;;;43.93;32.17;;;5.50;99.90;;;;;;5033224;28;20056;-80
2022/03/24 00:57:40;;;;;;;38.35;31.17;;;5.40;99.90;;;;;;5016350;28;20292;-81
2022/03/24 01:00:18;;;;;;;39.95;30.83;;;5.40;99.90;;;;;;5031803;28;20056;-81
2022/03/24 01:02:45;;;;;;;39.55;30.60;;;5.40;99.90;;;;;;5033261;28;20572;-80
2022/03/24 01:05:12;;;;;;;41.47;30.90;;;5.40;99.90;;;;;;5033036;28;20065;-80
2022/03/24 01:07:39;;;;;;;33.83;28.30;;;5.30;99.90;;;;;;5016027;28;20048;-80
2022/03/24 01:10:06;;;;;;;35.90;29.70;;;5.30;99.90;;;;;;5031668;28;20049;-81
2022/03/24 01:12:32;;;;;;;37.10;28.67;;;5.30;99.90;;;;;;5032133;28;20402;-81
2022/03/24 01:14:58;;;;;;;35.58;29.50;;;5.30;99.90;;;;;;5032210;28;20046;-82
2022/03/24 01:17:25;;;;;;;37.70;29.55;;;5.20;99.90;;;;;;5031538;28;20054;-81
2022/03/24 01:19:51;;;;;;;39.58;30.05;;;5.20;99.90;;;;;;5032015;28;20060;-80
2022/03/24 01:22:17;;;;;;;39.05;30.23;;;5.20;99.90;;;;;;5030802;28;20054;-81
2022/03/24 01:24:45;;;;;;;39.55;28.77;;;5.20;99.90;;;;;;5032991;28;20041;-80
2022/03/24 01:27:11;;;;;;;37.58;30.88;;;5.20;99.90;;;;;;5019655;28;20045;-81
2022/03/24 01:29:37;;;;;;;42.80;32.40;;;5.10;99.90;;;;;;5032637;28;20037;-81
2022/03/24 01:32:03;;;;;;;36.88;30.40;;;5.10;99.90;;;;;;5031268;28;20420;-81
2022/03/24 01:34:29;;;;;;;40.95;31.25;;;5.10;99.90;;;;;;5032173;28;20042;-81
2022/03/24 01:36:55;;;;;;;40.05;30.20;;;5.00;99.90;;;;;;5014967;28;20044;-81
2022/03/24 01:39:21;;;;;;;40.30;31.10;;;5.10;99.90;;;;;;4998430;28;20092;-81
2022/03/24 01:41:47;;;;;;;43.58;32.45;;;5.00;99.90;;;;;;5014956;28;20049;-81
2022/03/24 01:44:14;;;;;;;47.80;33.85;;;5.00;99.90;;;;;;5014369;28;20452;-80
2022/03/24 01:47:06;;;;;;;41.25;32.60;;;5.00;99.90;;;;;;5032194;28;20041;-81
2022/03/24 01:49:34;;;;;;;46.90;35.60;;;5.00;99.90;;;;;;5012653;28;20049;-80
2022/03/24 01:52:00;;;;;;;43.60;33.22;;;5.00;99.90;;;;;;5014605;28;20069;-81
2022/03/24 01:54:27;;;;;;;48.53;37.22;;;4.90;99.90;;;;;;5027470;28;20580;-80
2022/03/24 01:56:53;;;;;;;48.00;37.42;;;4.90;99.90;;;;;;5029823;28;20042;-80
2022/03/24 01:59:19;;;;;;;50.55;37.38;;;4.90;99.90;;;;;;5014712;28;20124;-80
2022/03/24 02:01:45;;;;;;;49.60;38.78;;;4.90;99.90;;;;;;5032583;28;20088;-80
2022/03/24 02:04:11;;;;;;;50.72;39.05;;;4.80;99.90;;;;;;5032021;28;20446;-81
2022/03/24 02:06:37;;;;;;;48.30;37.30;;;4.80;99.90;;;;;;5031320;28;20478;-80
2022/03/24 02:09:05;;;;;;;48.53;37.30;;;4.80;99.90;;;;;;5031268;28;20132;-81
2022/03/24 02:11:31;;;;;;;49.50;39.65;;;4.80;99.90;;;;;;5030959;28;20045;-81
2022/03/24 02:13:57;;;;;;;54.97;39.58;;;4.80;99.90;;;;;;5031310;28;20375;-81
2022/03/24 02:16:29;;;;;;;51.97;39.55;;;4.80;99.90;;;;;;5014723;28;20056;-81
2022/03/24 02:18:59;;;;;;;44.85;36.13;;;4.70;99.90;;;;;;5031396;28;20060;-81
2022/03/24 02:21:28;;;;;;;52.15;38.58;;;4.70;99.90;;;;;;5032096;28;20050;-80
2022/03/24 02:23:53;;;;;;;50.45;36.30;;;4.70;99.90;;;;;;5031490;28;20425;-80
2022/03/24 02:26:19;;;;;;;46.58;34.70;;;4.70;99.90;;;;;;5031915;28;20048;-81
2022/03/24 02:28:45;;;;;;;46.15;34.28;;;4.60;99.90;;;;;;5031116;28;20053;-81
2022/03/24 02:31:14;;;;;;;45.13;34.83;;;4.60;99.90;;;;;;5031344;28;20462;-80
2022/03/24 02:33:40;;;;;;;43.55;33.20;;;4.60;99.90;;;;;;5032774;28;20037;-80
2022/03/24 02:36:07;;;;;;;51.40;35.83;;;4.50;99.90;;;;;;5018670;28;20465;-80
2022/03/24 02:38:33;;;;;;;46.13;35.28;;;4.60;99.90;;;;;;5035677;28;20057;-81
2022/03/24 02:40:59;;;;;;;46.10;35.70;;;4.60;99.90;;;;;;5036106;28;20144;-80
2022/03/24 02:43:25;;;;;;;46.10;34.63;;;4.70;99.90;;;;;;5034453;28;20132;-80
2022/03/24 02:45:50;;;;;;;43.47;32.88;;;4.60;99.90;;;;;;5035114;28;20085;-80
2022/03/24 02:48:16;;;;;;;41.40;31.25;;;4.60;99.90;;;;;;5035563;28;20516;-81
2022/03/24 02:50:42;;;;;;;42.63;31.85;;;4.50;99.90;;;;;;5034447;28;20053;-80
2022/03/24 02:53:08;;;;;;;42.25;32.22;;;4.50;99.90;;;;;;5034596;28;20061;-80
2022/03/24 02:55:34;;;;;;;46.42;34.53;;;4.50;99.90;;;;;;5035438;28;20060;-80
2022/03/24 02:57:59;;;;;;;41.85;32.90;;;4.40;99.90;;;;;;5034761;28;20088;-80
2022/03/24 03:00:27;;;;;;;43.38;33.80;;;4.50;99.90;;;;;;5035289;28;20052;-80
2022/03/24 03:02:53;;;;;;;42.70;33.30;;;4.40;99.90;;;;;;5035695;28;20409;-80
2022/03/24 03:05:19;;;;;;;43.25;31.95;;;4.40;99.90;;;;;;5035186;28;20041;-81
2022/03/24 03:07:44;;;;;;;42.72;32.17;;;4.40;99.90;;;;;;5035543;28;20045;-80
2022/03/24 03:10:11;;;;;;;42.63;33.40;;;4.30;99.90;;;;;;5034590;28;20068;-81
2022/03/24 03:12:37;;;;;;;43.33;33.20;;;4.40;99.90;;;;;;5035092;28;20135;-80
2022/03/24 03:15:04;;;;;;;41.50;32.40;;;4.30;99.90;;;;;;5034538;28;20046;-81
2022/03/24 03:17:29;;;;;;;47.83;33.95;;;4.30;99.90;;;;;;5033736;28;20045;-80
2022/03/24 03:19:56;;;;;;;42.90;32.45;;;4.30;99.90;;;;;;5034195;28;20100;-80
2022/03/24 03:22:22;;;;;;;47.50;34.88;;;4.20;99.90;;;;;;5034925;28;20459;-80
2022/03/24 03:24:47;;;;;;;47.08;36.13;;;4.20;99.90;;;;;;5035352;28;20041;-80
2022/03/24 03:27:13;;;;;;;48.33;36.40;;;4.20;99.90;;;;;;5035208;28;20208;-80
2022/03/24 03:29:39;;;;;;;54.50;38.33;;;4.20;99.90;;;;;;5033688;28;20046;-80
2022/03/24 03:32:06;;;;;;;52.35;37.13;;;4.20;99.90;;;;;;5034168;28;20115;-80
2022/03/24 03:34:31;;;;;;;55.55;41.63;;;4.20;99.90;;;;;;5033736;28;20056;-81
2022/03/24 03:36:59;;;;;;;51.65;37.13;;;4.20;99.90;;;;;;5034188;28;20053;-81
2022/03/24 03:39:25;;;;;;;53.40;38.75;;;4.10;99.90;;;;;;5033470;28;20053;-80
2022/03/24 03:41:50;;;;;;;52.25;41.42;;;4.10;99.90;;;;;;5017062;28;20565;-81
2022/03/24 03:44:16;;;;;;;53.40;41.58;;;4.10;99.90;;;;;;5017517;28;20133;-81
2022/03/24 03:46:42;;;;;;;54.45;40.53;;;4.10;99.90;;;;;;5015917;28;20132;-81
2022/03/24 03:49:07;;;;;;;50.38;39.45;;;4.10;99.90;;;;;;5034838;28;20389;-81
2022/03/24 03:51:35;;;;;;;57.97;42.38;;;4.00;99.90;;;;;;5032627;28;20529;-81
2022/03/24 03:54:00;;;;;;;56.95;42.00;;;4.00;99.90;;;;;;5017271;28;20049;-81
2022/03/24 03:56:26;;;;;;;55.63;41.05;;;4.10;99.90;;;;;;5027905;28;20036;-81
2022/03/24 03:58:52;;;;;;;55.85;40.95;;;4.00;99.90;;;;;;5033695;28;20052;-80
2022/03/24 04:01:17;;;;;;;52.47;39.97;;;4.00;99.90;;;;;;5034333;28;20405;-80
2022/03/24 04:03:43;;;;;;;57.58;43.03;;;3.90;99.90;;;;;;5016071;28;20129;-80
2022/03/24 04:06:10;;;;;;;53.38;40.35;;;3.90;99.90;;;;;;5033884;28;20049;-81
2022/03/24 04:08:40;;;;;;;53.67;39.60;;;3.80;99.90;;;;;;5016268;28;20049;-81
2022/03/24 04:11:07;;;;;;;52.43;39.33;;;3.90;99.90;;;;;;5034031;28;20060;-80
2022/03/24 04:13:34;;;;;;;58.70;41.42;;;3.90;99.90;;;;;;5033554;28;20363;-81
2022/03/24 04:16:00;;;;;;;54.10;40.15;;;3.90;99.90;;;;;;5016108;28;20053;-81
2022/03/24 04:18:26;;;;;;;56.55;39.45;;;3.80;99.90;;;;;;5033427;28;20070;-82
2022/03/24 04:20:52;;;;;;;53.97;41.72;;;3.80;99.90;;;;;;5033924;28;20057;-81
2022/03/24 04:23:17;;;;;;;58.47;43.17;;;3.80;99.90;;;;;;5033779;28;20057;-81
2022/03/24 04:25:43;;;;;;;53.97;41.17;;;3.80;99.90;;;;;;5032363;28;20037;-81
2022/03/24 04:28:09;;;;;;;57.45;42.85;;;3.80;99.90;;;;;;5033775;28;20049;-81
2022/03/24 04:30:35;;;;;;;53.90;39.90;;;3.80;99.90;;;;;;5033484;28;20045;-81
2022/03/24 04:33:01;;;;;;;56.22;41.00;;;3.80;99.90;;;;;;5034100;28;20508;-81
2022/03/24 04:35:27;;;;;;;55.03;41.45;;;3.80;99.90;;;;;;5016063;28;20374;-82
2022/03/24 04:37:52;;;;;;;55.83;41.83;;;3.70;99.90;;;;;;5032933;28;20053;-81
2022/03/24 04:40:19;;;;;;;59.67;42.47;;;3.70;99.90;;;;;;5033888;28;20370;-81
2022/03/24 04:42:45;;;;;;;48.72;37.25;;;3.70;99.90;;;;;;5015717;28;20132;-81
2022/03/24 04:45:12;;;;;;;49.00;36.30;;;3.70;99.90;;;;;;5032655;28;20053;-81
2022/03/24 04:47:38;;;;;;;46.13;34.70;;;3.60;99.90;;;;;;5033791;28;20080;-81
2022/03/24 04:50:05;;;;;;;48.67;36.33;;;3.60;99.90;;;;;;5033523;28;20053;-81
2022/03/24 04:52:31;;;;;;;53.30;39.65;;;3.60;99.90;;;;;;5032040;28;20048;-80
2022/03/24 04:54:58;;;;;;;48.92;38.20;;;3.60;99.90;;;;;;5032426;28;20394;-81
2022/03/24 04:57:24;;;;;;;49.28;36.85;;;3.60;99.90;;;;;;5032171;28;20063;-81
2022/03/24 04:59:50;;;;;;;52.53;38.33;;;3.50;99.90;;;;;;5033002;28;20041;-81
2022/03/24 05:02:17;;;;;;;54.97;39.15;;;3.50;99.90;;;;;;5033392;28;20047;-81
2022/03/24 05:04:43;;;;;;;57.50;40.13;;;3.50;99.90;;;;;;5015837;28;20053;-81
2022/03/24 05:07:11;;;;;;;52.15;39.95;;;3.50;99.90;;;;;;5033208;28;20044;-81
2022/03/24 05:09:37;;;;;;;59.70;42.53;;;3.50;99.90;;;;;;5031834;28;20048;-81
2022/03/24 05:12:04;;;;;;;58.80;41.70;;;3.50;99.90;;;;;;5032069;28;20049;-81
2022/03/24 05:14:30;;;;;;;54.17;41.50;;;3.50;99.90;;;;;;5033447;28;20041;-81
2022/03/24 05:16:57;;;;;;;55.47;40.58;;;3.40;99.90;;;;;;5032031;28;20046;-81
2022/03/24 05:19:22;;;;;;;55.35;39.45;;;3.50;99.90;;;;;;5033049;28;20053;-81
2022/03/24 05:21:48;;;;;;;54.20;39.80;;;3.50;99.90;;;;;;5032684;28;20056;-81
2022/03/24 05:24:14;;;;;;;56.30;40.60;;;3.50;99.90;;;;;;5015454;28;20049;-81
2022/03/24 05:26:40;;;;;;;57.85;42.05;;;3.40;99.90;;;;;;5032629;28;20052;-81
2022/03/24 05:29:06;;;;;;;64.55;45.83;;;3.40;99.90;;;;;;5033006;28;20046;-81
2022/03/24 05:31:31;;;;;;;62.92;44.13;;;3.50;99.90;;;;;;5031675;28;20107;-81
2022/03/24 05:33:57;;;;;;;63.28;45.42;;;3.40;99.90;;;;;;5032435;28;20047;-80
2022/03/24 05:36:23;;;;;;;61.63;44.72;;;3.40;99.90;;;;;;5032895;28;20041;-80
2022/03/24 05:38:48;;;;;;;63.95;46.30;;;3.40;99.90;;;;;;5015093;28;20042;-79
2022/03/24 05:41:14;;;;;;;67.63;48.97;;;3.40;99.90;;;;;;5032942;28;20045;-80
2022/03/24 05:43:40;;;;;;;61.65;45.90;;;3.40;99.90;;;;;;5031406;28;20081;-81
2022/03/24 05:46:06;;;;;;;62.25;45.53;;;3.40;99.90;;;;;;5032771;28;20045;-80
2022/03/24 05:48:33;;;;;;;65.53;46.08;;;3.40;99.90;;;;;;5032590;28;20398;-80
2022/03/24 05:51:00;;;;;;;61.20;45.63;;;3.60;99.90;;;;;;5032129;28;20061;-80
2022/03/24 05:53:25;;;;;;;63.35;45.38;;;3.50;99.90;;;;;;5015392;28;20486;-81
2022/03/24 05:55:52;;;;;;;64.88;45.35;;;3.50;99.90;;;;;;5032318;28;20052;-78
2022/03/24 05:58:17;;;;;;;64.20;46.38;;;3.50;99.90;;;;;;5032594;28;20050;-80
2022/03/24 06:00:43;;;;;;;59.95;43.00;;;3.50;99.90;;;;;;5030957;28;20098;-79
2022/03/24 06:03:08;;;;;;;62.30;44.20;;;3.50;99.90;;;;;;5032558;28;20046;-82
2022/03/24 06:05:35;;;;;;;58.88;43.58;;;3.50;99.90;;;;;;5031595;28;20041;-80
2022/03/24 06:08:00;;;;;;;59.30;44.13;;;3.50;99.90;;;;;;5032114;28;20056;-79
2022/03/24 06:10:27;;;;;;;56.42;41.67;;;3.50;99.90;;;;;;5035131;28;20041;-81
2022/03/24 06:12:53;;;;;;;60.20;43.67;;;3.60;99.90;;;;;;5035019;28;20053;-80
2022/03/24 06:15:19;;;;;;;61.33;44.72;;;3.60;99.90;;;;;;5018959;28;20052;-80
2022/03/24 06:17:44;;;;;;;61.30;44.65;;;3.60;99.90;;;;;;5036151;28;20053;-79
2022/03/24 06:20:11;;;;;;;59.72;44.03;;;3.70;99.90;;;;;;5035301;28;20049;-79
2022/03/24 06:22:41;;;;;;;59.85;45.22;;;3.70;99.90;;;;;;5036393;28;20084;-82
2022/03/24 06:25:08;;;;;;;57.05;42.53;;;3.80;99.90;;;;;;5035280;28;20429;-81
2022/03/24 06:27:34;;;;;;;57.67;41.88;;;3.70;99.90;;;;;;5032209;28;20069;-81
2022/03/24 06:29:59;;;;;;;61.63;45.83;;;3.80;99.90;;;;;;5017848;28;20048;-82
2022/03/24 06:32:27;;;;;;;70.70;48.30;;;3.80;99.90;;;;;;5035854;28;20457;-82
2022/03/24 06:34:53;;;;;;;61.08;46.22;;;3.90;99.90;;;;;;5035414;28;20132;-82
2022/03/24 06:37:19;;;;;;;63.45;48.33;;;4.00;99.90;;;;;;5035923;28;20141;-81
2022/03/24 06:39:45;;;;;;;66.55;47.75;;;4.10;99.90;;;;;;5035346;28;20049;-81
2022/03/24 06:42:10;;;;;;;67.55;47.00;;;4.00;99.90;;;;;;5018231;28;20115;-81
2022/03/24 06:44:36;;;;;;;66.40;49.65;;;4.10;99.90;;;;;;5035670;28;20456;-81
2022/03/24 06:47:02;;;;;;;72.60;51.50;;;4.10;99.90;;;;;;5035160;28;20124;-81
2022/03/24 06:49:27;;;;;;;66.40;47.95;;;4.20;99.90;;;;;;5035433;28;20041;-82
2022/03/24 06:51:53;;;;;;;67.55;48.10;;;4.30;99.90;;;;;;5033733;28;20058;-81
2022/03/24 06:54:19;;;;;;;67.97;47.50;;;4.40;99.90;;;;;;5017853;28;20051;-81
2022/03/24 06:56:44;;;;;;;65.20;47.05;;;4.50;99.90;;;;;;5035081;28;20053;-82
2022/03/24 06:59:10;;;;;;;57.85;43.92;;;4.50;99.90;;;;;;5034876;28;20054;-81
2022/03/24 07:01:36;;;;;;;65.38;45.60;;;4.60;99.90;;;;;;5034471;28;20091;-81
2022/03/24 07:04:02;;;;;;;78.25;51.60;;;4.70;99.90;;;;;;5035252;28;20041;-81
2022/03/24 07:06:27;;;;;;;76.13;53.55;;;4.80;99.90;;;;;;5034400;28;20050;-81
2022/03/24 07:08:53;;;;;;;75.93;53.03;;;4.90;99.90;;;;;;5035312;28;20052;-81
2022/03/24 07:11:19;;;;;;;68.72;51.72;;;5.00;99.90;;;;;;5034329;28;20046;-81
2022/03/24 07:13:45;;;;;;;67.05;46.95;;;5.10;99.90;;;;;;5035626;28;20049;-81
2022/03/24 07:16:10;;;;;;;68.25;49.53;;;5.20;99.90;;;;;;5017694;28;20065;-81
2022/03/24 07:18:36;;;;;;;64.75;48.90;;;5.30;99.90;;;;;;5034287;28;20041;-81
2022/03/24 07:21:02;;;;;;;64.10;48.45;;;5.30;99.90;;;;;;5033582;28;20474;-83
2022/03/24 07:23:27;;;;;;;70.35;50.25;;;5.40;99.90;;;;;;5035598;28;20060;-81
2022/03/24 07:25:53;;;;;;;63.97;49.28;;;5.50;99.90;;;;;;5034909;28;20493;-81
2022/03/24 07:28:18;;;;;;;71.47;51.42;;;5.60;99.90;;;;;;5035270;28;20045;-81
2022/03/24 07:30:50;;;;;;;66.45;49.38;;;5.70;99.90;;;;;;5035088;28;20053;-82
2022/03/24 07:33:16;;;;;;;71.25;50.55;;;5.70;99.90;;;;;;5034000;28;20096;-81
2022/03/24 07:35:42;;;;;;;68.68;50.78;;;5.90;99.90;;;;;;5033967;28;20057;-82
2022/03/24 07:38:09;;;;;;;68.80;51.95;;;5.90;99.90;;;;;;5033591;28;20160;-82
2022/03/24 07:40:34;;;;;;;72.95;53.83;;;6.00;99.90;;;;;;5034029;28;20049;-81
2022/03/24 07:43:00;;;;;;;81.75;59.38;;;6.10;99.90;;;;;;5016916;28;20048;-82
2022/03/24 07:45:26;;;;;;;76.90;55.58;;;6.10;99.90;;;;;;5034642;28;20128;-81
2022/03/24 07:48:08;;;;;;;75.03;57.00;;;6.20;99.90;;;;;;5033306;28;20081;-82
2022/03/24 07:50:41;;;;;;;76.72;56.22;;;6.30;99.90;;;;;;5034331;28;20115;-81
2022/03/24 07:53:13;;;;;;;74.47;56.40;;;6.30;99.90;;;;;;5033318;28;20053;-82
2022/03/24 07:55:41;;;;;;;75.20;56.10;;;6.50;99.90;;;;;;5034857;28;20041;-81
2022/03/24 07:58:08;;;;;;;76.47;56.88;;;6.50;99.90;;;;;;5034254;28;20037;-81
2022/03/24 08:00:34;;;;;;;71.60;55.78;;;6.50;99.90;;;;;;5033807;28;20473;-82
2022/03/24 08:03:00;;;;;;;72.72;56.45;;;6.70;99.90;;;;;;5034110;28;20049;-81
2022/03/24 08:05:29;;;;;;;71.75;56.22;;;6.70;99.90;;;;;;5033610;28;20045;-81
2022/03/24 08:07:55;;;;;;;70.88;56.60;;;6.80;99.90;;;;;;5032911;28;20048;-82
2022/03/24 08:10:21;;;;;;;73.50;56.95;;;6.90;99.90;;;;;;5033327;28;20048;-81
2022/03/24 08:12:46;;;;;;;65.30;49.38;;;7.00;99.90;;;;;;5033440;28;20045;-82
2022/03/24 08:15:12;;;;;;;65.55;50.58;;;7.20;99.90;;;;;;5032673;28;20049;-82
2022/03/24 08:17:38;;;;;;;68.25;51.95;;;7.40;99.90;;;;;;5034427;28;20048;-82
2022/03/24 08:20:05;;;;;;;69.97;52.88;;;7.60;99.90;;;;;;5033934;28;20042;-83
2022/03/24 08:22:30;;;;;;;72.75;56.33;;;7.70;99.90;;;;;;5016680;28;20057;-82
2022/03/24 08:24:56;;;;;;;69.35;52.58;;;7.80;99.90;;;;;;5032626;28;20042;-82
2022/03/24 08:27:22;;;;;;;64.32;51.95;;;7.90;99.90;;;;;;5034143;28;20037;-82
2022/03/24 08:29:47;;;;;;;71.45;53.75;;;7.90;99.90;;;;;;5034111;28;20111;-82
2022/03/24 08:32:13;;;;;;;69.35;54.70;;;8.10;99.90;;;;;;5032304;28;20057;-82
2022/03/24 08:34:38;;;;;;;70.85;54.67;;;8.10;99.90;;;;;;5033024;28;20045;-82
2022/03/24 08:37:05;;;;;;;65.13;50.33;;;8.20;99.90;;;;;;5033469;28;20041;-82
2022/03/24 08:39:31;;;;;;;65.03;50.42;;;8.30;99.90;;;;;;5033947;28;20084;-83
2022/03/24 08:41:57;;;;;;;59.25;46.20;;;8.40;99.90;;;;;;5032473;28;20139;-84
2022/03/24 08:44:22;;;;;;;61.22;46.97;;;8.50;99.90;;;;;;5016075;28;20045;-82
2022/03/24 08:46:48;;;;;;;63.95;47.45;;;8.60;99.90;;;;;;5033710;28;20052;-82
2022/03/24 08:49:13;;;;;;;61.30;45.83;;;8.70;99.90;;;;;;5016070;28;20136;-82
2022/03/24 08:51:39;;;;;;;61.38;44.00;;;8.80;99.90;;;;;;5032198;28;20382;-82
2022/03/24 08:54:05;;;;;;;62.35;44.70;;;8.90;99.90;;;;;;5032250;28;20061;-82
2022/03/24 08:56:31;;;;;;;64.32;45.08;;;9.10;99.90;;;;;;5026832;28;20049;-83
2022/03/24 08:58:57;;;;;;;66.28;49.05;;;9.20;99.90;;;;;;5014851;28;20053;-82
2022/03/24 09:01:22;;;;;;;64.68;49.30;;;9.30;99.90;;;;;;5032776;28;20045;-82
2022/03/24 09:03:51;;;;;;;69.88;49.67;;;9.30;99.90;;;;;;5015679;28;20045;-82
2022/03/24 09:06:16;;;;;;;64.15;48.80;;;9.50;99.90;;;;;;5032532;28;20057;-82
2022/03/24 09:08:42;;;;;;;64.57;48.05;;;9.60;99.90;;;;;;4999331;28;20126;-82
2022/03/24 09:11:09;;;;;;;65.88;47.33;;;9.70;99.90;;;;;;5032441;28;20417;-82
2022/03/24 09:13:35;;;;;;;59.25;46.15;;;9.80;99.90;;;;;;5032935;28;20041;-81
2022/03/24 09:16:01;;;;;;;58.40;44.10;;;9.90;99.90;;;;;;5032318;28;20049;-82
2022/03/24 09:18:27;;;;;;;61.17;45.88;;;9.90;99.90;;;;;;5032672;28;20056;-82
2022/03/24 09:20:52;;;;;;;61.47;47.70;;;10.00;99.90;;;;;;5032529;28;20121;-82
2022/03/24 09:23:18;;;;;;;62.75;44.20;;;10.00;99.90;;;;;;5031910;28;20068;-81
2022/03/24 09:25:44;;;;;;;63.00;45.20;;;10.20;99.90;;;;;;5015323;28;20103;-81
2022/03/24 09:28:10;;;;;;;57.85;43.97;;;10.30;99.90;;;;;;5032420;28;20106;-81
2022/03/24 09:30:36;;;;;;;66.22;45.45;;;10.50;99.90;;;;;;5031892;28;20041;-81
2022/03/24 09:33:02;;;;;;;56.08;42.20;;;10.60;99.60;;;;;;5033092;28;20448;-82
2022/03/24 09:35:28;;;;;;;59.40;44.42;;;10.60;99.20;;;;;;5032982;28;20049;-81
2022/03/24 09:37:54;;;;;;;58.33;43.30;;;10.80;98.40;;;;;;5031841;28;20049;-81
2022/03/24 09:40:19;;;;;;;56.50;43.88;;;10.90;97.80;;;;;;5031534;28;20436;-82
2022/03/24 09:42:45;;;;;;;57.47;43.33;;;11.00;97.00;;;;;;5015128;28;20398;-82
2022/03/24 09:45:11;;;;;;;55.92;43.95;;;11.10;96.80;;;;;;5031724;28;20115;-82
2022/03/24 09:47:37;;;;;;;55.78;43.42;;;11.20;96.70;;;;;;5015179;28;20120;-82
2022/03/24 09:50:04;;;;;;;58.85;44.25;;;11.30;96.70;;;;;;5015135;28;20080;-82
2022/03/24 09:52:30;;;;;;;60.53;44.92;;;11.40;96.20;;;;;;5015177;28;20068;-82
2022/03/24 09:54:56;;;;;;;60.00;44.17;;;11.50;96.00;;;;;;5015129;28;20139;-82
2022/03/24 09:57:22;;;;;;;50.85;39.45;;;11.60;95.80;;;;;;5030958;28;20042;-82
2022/03/24 09:59:48;;;;;;;54.22;38.85;;;11.70;94.60;;;;;;5032617;28;20502;-82
2022/03/24 10:02:14;;;;;;;53.05;37.70;;;11.80;93.70;;;;;;5032174;28;20111;-82
2022/03/24 10:04:53;;;;;;;51.40;38.85;;;11.90;92.90;;;;;;5031415;28;20038;-82
2022/03/24 10:07:25;;;;;;;49.00;37.42;;;12.00;92.60;;;;;;5030971;28;20046;-82
2022/03/24 10:09:53;;;;;;;54.80;39.00;;;12.10;92.40;;;;;;5031629;28;20053;-82
2022/03/24 10:12:28;;;;;;;50.03;37.13;;;12.20;92.20;;;;;;5014836;28;20041;-82
2022/03/24 10:15:12;;;;;;;48.85;38.65;;;12.20;91.20;;;;;;5031472;28;20045;-82
2022/03/24 10:17:39;;;;;;;55.35;38.05;;;12.30;91.10;;;;;;5031402;28;20088;-82
2022/03/24 10:20:15;;;;;;;48.35;38.22;;;12.30;90.90;;;;;;5014753;28;20532;-82
2022/03/24 10:22:54;;;;;;;51.67;37.70;;;12.40;90.40;;;;;;5031336;28;20132;-82
2022/03/24 10:25:21;;;;;;;57.13;38.65;;;12.60;90.40;;;;;;5031103;28;20049;-82
2022/03/24 10:28:12;;;;;;;50.67;38.40;;;12.60;90.20;;;;;;5031219;28;20367;-82
2022/03/24 10:31:04;;;;;;;;;;;12.80;89.50;;;;;;5032978;28;20045;-82
2022/03/24 10:33:37;;;;;;;56.53;40.47;;;12.80;91.20;;;;;;5029589;28;20044;-82
2022/03/24 10:36:10;;;;;;;45.72;35.83;;;12.90;89.50;;;;;;5031101;28;20108;-83
2022/03/24 10:38:39;;;;;;;49.10;34.75;;;13.10;87.70;;;;;;5030843;28;20124;-82
2022/03/24 10:41:12;;;;;;;45.72;35.17;;;13.10;86.80;;;;;;5032536;28;20183;-81
2022/03/24 10:43:38;;;;;;;47.55;36.53;;;13.20;85.30;;;;;;5031087;28;20093;-81
2022/03/24 10:46:34;;;;;;;47.42;36.10;;;13.30;84.60;;;;;;5032075;28;20088;-80
2022/03/24 10:49:23;;;;;;;49.53;36.67;;;13.40;83.80;;;;;;5018628;28;20061;-81
2022/03/24 10:51:50;;;;;;;46.78;32.97;;;13.40;84.70;;;;;;5032109;28;20401;-82
2022/03/24 10:54:47;;;;;;;50.38;35.92;;;13.50;84.80;;;;;;5030533;28;20132;-83
2022/03/24 10:57:20;;;;;;;51.45;35.85;;;13.60;83.50;;;;;;5027004;28;20050;-83
2022/03/24 10:59:47;;;;;;;52.97;36.03;;;13.60;82.10;;;;;;5018658;28;20061;-88
2022/03/24 11:02:13;;;;;;;45.40;35.35;;;13.70;80.50;;;;;;5034476;28;20056;-87
2022/03/24 11:04:39;;;;;;;55.47;38.10;;;13.80;79.60;;;;;;5018603;28;20478;-86
2022/03/24 11:07:04;;;;;;;50.47;36.33;;;13.80;80.90;;;;;;5034433;28;20053;-83
2022/03/24 11:09:32;;;;;;;46.97;35.65;;;13.90;80.60;;;;;;5034109;28;20049;-82
2022/03/24 11:12:26;;;;;;;46.95;36.17;;;14.00;79.70;;;;;;5035366;28;20520;-82
2022/03/24 11:14:54;;;;;;;48.17;33.58;;;14.10;80.10;;;;;;5035545;28;20084;-81
2022/03/24 11:17:22;;;;;;;43.45;34.40;;;14.10;81.70;;;;;;5034978;28;20052;-82
2022/03/24 11:20:03;;;;;;;51.47;37.45;;;14.20;79.80;;;;;;5034480;28;20058;-81
2022/03/24 11:22:41;;;;;;;;;;;14.40;79.00;;;;;;5035415;28;20049;-82
2022/03/24 11:25:07;;;;;;;45.95;34.22;;;14.40;79.10;;;;;;5034075;28;20416;-82
2022/03/24 11:27:33;;;;;;;43.10;34.22;;;14.40;79.20;;;;;;5002654;28;20069;-82
2022/03/24 11:30:00;;;;;;;50.50;32.65;;;14.50;77.90;;;;;;5017162;28;20516;-82
2022/03/24 11:32:26;;;;;;;40.47;31.13;;;14.50;76.40;;;;;;5034363;28;20041;-82
2022/03/24 11:34:53;;;;;;;44.80;33.10;;;14.60;76.30;;;;;;5017353;28;20470;-82
2022/03/24 11:37:19;;;;;;;48.03;35.65;;;14.70;75.40;;;;;;5016725;28;20041;-82
2022/03/24 11:40:11;;;;;;;46.40;35.20;;;14.80;75.00;;;;;;5034589;28;20045;-81
2022/03/24 11:42:44;;;;;;;44.15;34.83;;;14.90;75.00;;;;;;5034651;28;20056;-81
2022/03/24 11:45:19;;;;;;;44.08;33.28;;;14.80;75.40;;;;;;5016731;28;20171;-82
2022/03/24 11:48:05;;;;;;;45.60;32.58;;;14.90;74.20;;;;;;5034581;28;20084;-82
2022/03/24 11:50:34;;;;;;;45.83;33.63;;;15.00;74.10;;;;;;5034149;28;20041;-82
2022/03/24 11:53:29;;;;;;;46.35;34.30;;;15.10;74.70;;;;;;5034486;28;20061;-82
2022/03/24 11:56:01;;;;;;;40.55;32.97;;;15.20;74.50;;;;;;4992448;28;20061;-81
2022/03/24 11:58:44;;;;;;;41.40;32.63;;;15.20;71.30;;;;;;5034021;28;20050;-82
2022/03/24 12:01:23;;;;;;;42.55;32.38;;;15.30;72.20;;;;;;5033721;28;20045;-82
2022/03/24 12:03:54;;;;;;;39.97;32.05;;;15.30;72.40;;;;;;5034318;28;20567;-82
2022/03/24 12:06:40;;;;;;;40.45;32.17;;;15.40;72.60;;;;;;5033556;28;20095;-86
2022/03/24 12:09:06;;;;;;;42.75;33.50;;;15.40;72.70;;;;;;5034435;28;20421;-80
2022/03/24 12:11:32;;;;;;;42.63;32.88;;;15.40;71.20;;;;;;5032902;28;20048;-81
2022/03/24 12:14:02;;;;;;;44.55;32.92;;;15.40;71.50;;;;;;5034433;28;20046;-81
2022/03/24 12:16:28;;;;;;;45.15;33.15;;;15.50;71.50;;;;;;5034026;28;20107;-80
2022/03/24 12:18:54;;;;;;;44.88;32.92;;;15.60;71.40;;;;;;5034447;28;20124;-80
2022/03/24 12:21:27;;;;;;;46.47;33.03;;;15.60;70.70;;;;;;5033149;28;20045;-80
2022/03/24 12:24:02;;;;;;;40.58;32.58;;;15.70;70.30;;;;;;5016682;28;20050;-79
2022/03/24 12:26:30;;;;;;;42.03;33.33;;;15.80;69.00;;;;;;5033733;28;20112;-80
2022/03/24 12:29:11;;;;;;;44.10;32.90;;;15.90;69.10;;;;;;5033038;28;20045;-80
2022/03/24 12:31:59;;;;;;;44.95;33.05;;;16.10;67.50;;;;;;5033554;28;20064;-80
2022/03/24 12:34:40;;;;;;;49.17;33.60;;;16.30;66.20;;;;;;5016270;28;20042;-81
2022/03/24 12:37:06;;;;;;;;;;;16.30;66.70;;;;;;5034304;28;20052;-80
2022/03/24 12:39:40;;;;;;;45.78;33.92;;;16.30;65.40;;;;;;5032334;28;19921;-81